Flight Number: EUR3019 Duration: 7:00
Departure: Baltimore Washington Intl (KBWI) at 07:00 Distance: 3173 Nm
Arrival: Gatwick Airport (EGKK) at 14:00 Equipment: B777

Weather Information
BALTIMORE-WASHINGTON INTERNATIONAL , MD, United States (KBWI) 39-10N 076-41W 59M May 24, 2018 - 04:54 PM EDT / 2018.05.24 2054 UTC
Wind: from the W (270 degrees) at 6 MPH (5 KT):0
Visibility: 10 mile(s):0
Sky conditions: clear Temperature: 84.0 F (28.9 C) Dew Point: 50.0 F (10.0 C) Relative Humidity: 30% Pressure (altimeter): 30.11 in. Hg (1019 hPa) Pressure tendency: 0.04 inches (1.5 hPa) lower than three hours ago
ob: KBWI 242054Z 27005KT 10SM CLR 29/10 A3011 RMK AO2 SLP196 T02890100 56015 cycle: 21
Sunrise: 09:49 Sunset: 00:17 (UTC)

London / Gatwick Airport, United Kingdom (EGKK) 51-09N 000-11W 0M May 24, 2018 - 04:50 PM EDT / 2018.05.24 2050 UTC
Wind: Variable at 5 MPH (4 KT):0
Visibility: 1 mile(s):0
Sky conditions: mostly clear Weather: mist Temperature: 59 F (15 C) Dew Point: 57 F (14 C) Relative Humidity: 93% Pressure (altimeter): 30.06 in. Hg (1018 hPa)
ob: EGKK 242050Z VRB04KT 3000 BR FEW004 15/14 Q1018 cycle: 21
Sunrise: 04:02 Sunset: 19:52 (UTC)

TAF:2018/05/24 20:44 TAF AMD EGKK 242035Z 2420/2524 02008KT 7000 BKN045 TEMPO 2420/2524 2000 RADZ BKN014 BECMG 2500/2503 BKN008 PROB30 2500/2508 3000 BR BKN004 BECMG 2508/2511 9999 SCT025

Previous Pireps for this route
Date Aircraft Flight time Fuel used Landing rate On time
2013-02-04A34007.09176480-953No
2013-12-03B7479.10171000Yes
2016-06-07B77706.36127079-304No
(pireps marked green are flown by you)

Route map